Weather observations for the past three days for
Joseph A Hardy Connellsville Airport
Imperial (Metric)
Date Time (edt) Wind (mph) Vis. (mi.) Weather Sky Cond. Temperature (ºF) Relative Humidity Wind Chill (°F) Heat Index (°F) Pressure Precipitation (in)
Air Dwpt 6 hour altimeter (in) sea level (mb) 1 hr 3 hr 6 hr
Max. Min.
07 02:55 Calm 10.00 Overcast OVC080 47.3 37.6 69% 29.92 0.0
07 02:35 Calm 10.00 Overcast SCT041 OVC090 47.1 38.7 73% 29.92 0.0
07 02:15 NE 5 10.00 Overcast BKN039 OVC090 47.5 39.2 73% 46 29.92 0.0
07 01:35 Calm 10.00 Overcast OVC037 48.2 40.6 75% 29.93 0.0
07 01:15 N 5 10.00 Overcast OVC035 48.6 40.8 75% 47 29.94 0.0
07 00:55 N 3 10.00 Overcast OVC035 48.7 41 75% 29.94 0.0
07 00:35 N 3 10.00 Overcast BKN039 OVC070 48.7 42.1 78% 29.94 0.0
07 00:15 N 3 10.00 Overcast BKN039 OVC070 49.1 42.3 77% 29.93 0.0
06 23:55 Calm 10.00 Overcast OVC039 49.5 43.3 80% 29.93 0.0
06 23:15 N 5 10.00 Overcast OVC041 49.8 43.5 79% 49 29.93 0.0
06 22:55 NW 3 10.00 Overcast SCT019 SCT030 OVC041 50 45.5 85% 29.93 0.0
06 22:35 NW 3 10.00 Overcast SCT021 BKN041 OVC060 50.4 48.9 95% 29.92 0.0
06 22:15 Calm 10.00 Overcast SCT039 OVC060 50.5 48.9 94% 29.91 0.0
06 21:55 Calm 7.00 Overcast SCT039 OVC060 50.7 48.9 94% 29.91 0.0
06 21:35 Calm 10.00 Overcast SCT031 OVC060 50.7 48.7 93% 29.9 0.0
06 21:15 Calm 10.00 Overcast SCT031 SCT040 OVC050 50.9 48.6 92% 29.9 0.0
06 20:55 Calm 10.00 Overcast OVC043 51.1 48 89% 29.9 0.0
06 20:35 Calm 10.00 Overcast OVC039 51.3 48 89% 29.9 0.0
06 20:15 Calm 10.00 Overcast OVC035 51.3 48.6 91% 29.91 0.0
06 19:55 Calm 10.00 Overcast OVC033 51.4 48 54.1 51.1 88% 29.91 0.0
06 19:35 Calm 10.00 Overcast OVC031 51.4 48 88% 29.9 0.0
06 18:55 W 3 10.00 Overcast OVC029 52 47.5 85% 29.89 0.0
06 18:35 W 5 10.00 Overcast OVC027 52 47.1 84% 29.88 0.0
06 18:15 NW 3 10.00 Overcast OVC025 52.2 47.3 84% 29.89 0.0
06 17:35 NW 5 10.00 Overcast OVC021 52.3 48.2 86% 29.88 0.0
06 17:15 W 6 10.00 Overcast OVC019 52.5 48.4 86% 29.86 0.0
06 16:55 W 3 10.00 Overcast OVC017 52.5 48.7 87% 29.86 0.0
06 16:35 NW 3 10.00 Overcast OVC013 52.3 48.6 87% 29.86 0.0
06 16:15 N 5 10.00 Overcast OVC013 52.5 49.1 88% 29.85 0.0
06 15:55 NW 7 10.00 Overcast OVC011 52.3 48.9 88% 29.85 0.0
06 15:35 W 5 10.00 Overcast OVC009 53.6 50.5 89% 29.84 0.0
06 15:15 NW 3 10.00 Overcast OVC006 51.3 49.3 93% 29.85 0.0
06 14:55 W 5 10.00 Overcast OVC006 51.6 49.8 94% 29.86 0.0
06 14:35 NW 5 10.00 Overcast OVC006 51.3 49.6 94% 29.85 0.0
06 14:15 W 7 10.00 Overcast OVC006 51.4 50 95% 29.85 0.0
06 13:55 W 5 10.00 Overcast OVC004 51.4 50.4 58.8 50.9 96% 29.85 0.0 0.06
06 13:35 W 6 3.00 Light Drizzle Fog/Mist OVC004 51.1 50 96% 29.84 0.0
06 13:15 W 7 2.50 Fog/Mist OVC006 51.6 50.4 95% 29.84 0.0
06 12:55 NW 5 10.00 Overcast OVC006 52.2 50.9 96% 29.83 0.0 0.01
06 12:35 W 5 3.50 Light Drizzle Fog/Mist OVC004 52.7 51.4 96% 29.82 0.0 0.01
06 12:15 W 3 3.50 Fog/Mist OVC004 52 50.9 96% 29.82 0.0 0.01
06 11:55 W 7 5.00 Light Drizzle Fog/Mist OVC004 52.2 50.9 96% 29.81 0.0 0.04
06 11:35 NW 8 3.00 Light Drizzle Fog/Mist BKN004 OVC015 52.5 51.4 96% 29.8 0.0 0.04
06 11:15 NW 9 2.00 Light Rain Fog/Mist BKN006 OVC015 53.8 52.5 96% 29.79 0.0 0.04
06 10:55 SW 13 1.50 Light Rain Fog/Mist OVC006 58.1 56.7 95% 29.76 0.0 0.01
06 10:35 SW 10 G 18 7.00 Overcast OVC008 58.3 56.3 93% 29.75 0.0
06 10:15 SW 12 G 22 10.00 Overcast OVC008 58.6 56.7 93% 29.75 0.0
06 09:55 SW 13 G 20 10.00 Overcast OVC010 58.5 56.1 92% 29.74 0.0
06 09:35 SW 15 10.00 Overcast OVC012 58.5 56.3 93% 29.74 0.0
06 09:15 SW 9 10.00 Overcast OVC012 57.7 55.9 94% 29.74 0.0
06 08:55 SW 9 10.00 Light Rain BKN016 BKN023 OVC028 57.2 55.4 94% 29.75 0.0 0.01
06 08:35 SW 13 10.00 Light Rain OVC028 57.2 55.2 93% 29.74 0.0
06 08:15 SW 12 10.00 Overcast BKN030 OVC038 57 54.9 93% 29.75 0.0
06 07:55 SW 8 10.00 Overcast BKN032 OVC038 56.3 54.7 61.9 55.9 94% 29.74 0.0 0.01 0.21
06 07:35 SW 7 10.00 Overcast BKN032 OVC042 56.1 54.5 94% 29.74 0.0 0.01
06 07:15 SW 7 10.00 Light Rain OVC042 56.1 54.3 94% 29.74 0.0 0.01
06 06:55 SW 9 10.00 Light Rain OVC042 56.1 54.3 94% 29.75 0.0 0.09
06 06:35 SW 6 7.00 Rain Fog/Mist BKN040 BKN055 OVC075 56.1 54.1 93% 29.74 0.0 0.08
06 06:15 S 8 5.00 Rain Fog/Mist BKN044 OVC065 56.3 54.1 93% 29.74 0.0 0.04
06 05:55 S 6 7.00 Light Rain Fog/Mist BKN048 OVC065 56.5 54.7 94% 29.75 0.0 0.06
06 05:35 S 5 5.00 Light Rain Fog/Mist OVC050 56.3 54.9 95% 29.75 0.0 0.03
06 05:15 Calm 7.00 Light Rain Fog/Mist BKN050 OVC070 56.3 54.9 95% 29.76 0.0 0.01
06 04:55 Calm 5.00 Light Rain Fog/Mist BKN060 OVC080 56.5 54.1 92% 29.75 0.0 0.04 0.04
06 04:35 Calm 7.00 Light Rain Fog/Mist OVC070 56.7 54 91% 29.75 0.0 0.01
06 04:15 E 3 10.00 Light Rain BKN065 OVC090 57.2 54.1 90% 29.75 0.0
06 03:55 Calm 10.00 Overcast SCT065 OVC090 57.4 53.6 87% 29.75 0.0
06 03:35 E 6 10.00 Light Rain BKN065 OVC090 57.9 52.5 82% 29.74 0.0
06 03:15 E 3 10.00 Overcast OVC065 58.6 52.2 79% 29.75 0.0
06 02:55 NE 3 10.00 Overcast SCT050 OVC065 58.8 52 78% 29.76 0.0
06 02:35 Calm 10.00 Light Drizzle BKN055 OVC065 59 51.8 77% 29.77 0.0
06 02:15 E 3 10.00 Overcast OVC065 60.3 51.1 72% 29.78 0.0
06 01:55 Calm 10.00 Overcast OVC070 62.1 48.6 69.1 61.9 61% 29.8 0.0
06 01:35 W 7 10.00 Overcast OVC080 63 48 58% 29.81 0.0
06 01:15 W 8 10.00 Overcast OVC080 63.9 47.5 55% 29.8 0.0
06 00:55 W 7 10.00 Overcast OVC080 64 47.5 55% 29.8 0.0
06 00:35 W 5 10.00 Overcast OVC090 64.2 48.2 56% 29.8 0.0
06 00:15 W 5 10.00 Overcast OVC080 64.9 46.9 52% 29.79 0.0
05 23:55 SW 6 10.00 Overcast OVC090 66.4 46.2 48% 29.79 0.0
05 23:35 SW 7 10.00 Overcast OVC090 66.9 45.9 47% 29.79 0.0
05 23:15 SW 6 10.00 Overcast OVC090 67.3 45.9 46% 29.79 0.0
05 22:55 SW 8 10.00 Overcast OVC090 67.6 45.9 46% 29.79 0.0
05 22:35 SW 8 10.00 Overcast BKN090 OVC110 66.6 46.6 49% 29.8 0.0
05 22:15 SW 3 10.00 Mostly Cloudy BKN110 66.4 46.6 49% 29.8 0.0
05 21:55 SW 5 10.00 Fair CLR 66.9 46.6 48% 29.79 0.0
05 21:35 S 5 10.00 Fair CLR 66.6 46.9 49% 29.79 0.0
05 21:15 S 3 10.00 Fair CLR 66.7 46.8 49% 29.8 0.0
05 20:55 S 3 10.00 Fair CLR 67.1 47.1 49% 29.8 0.0
05 20:35 S 5 10.00 Fair CLR 67.6 46.9 48% 29.8 0.0
05 20:15 SW 6 10.00 Fair CLR 68.7 45.5 43% 29.8 0.0
05 19:55 SW 6 10.00 Fair CLR 69.4 45.3 77.7 69.3 42% 29.79 0.0
05 19:35 SW 7 10.00 Fair CLR 70.7 45.3 40% 29.79 0.0
05 19:15 SW 10 10.00 Fair CLR 71.2 45.7 40% 29.8 0.0
05 18:55 SW 10 G 17 10.00 Fair CLR 71.4 46.2 41% 29.8 0.0
05 18:35 SW 15 G 22 10.00 Fair CLR 72.1 45.9 39% 29.8 0.0
05 18:15 SW 12 G 23 10.00 Partly Cloudy SCT070 72.9 46 38% 29.8 0.0
05 17:55 SW 15 10.00 Partly Cloudy SCT070 73.2 46.4 39% 29.8 0.0
05 17:35 SW 15 G 20 10.00 Fair CLR 73.8 46.9 39% 29.8 0.0
05 17:15 SW 16 G 23 10.00 Fair CLR 73.8 47.5 39% 29.8 0.0
05 16:55 SW 10 G 24 10.00 Partly Cloudy SCT070 SCT080 73.6 48.2 41% 29.8 0.0
05 16:35 SW 17 G 28 10.00 Overcast OVC070 73.8 47.1 39% 29.8 0.0
05 16:15 SW 16 G 28 10.00 Mostly Cloudy BKN070 BKN095 73.6 47.8 40% 29.8 0.0
05 15:55 SW 16 G 23 10.00 Partly Cloudy SCT070 SCT080 SCT110 75.7 48.9 39% 78 29.8 0.0
05 15:35 SW 13 G 30 10.00 Partly Cloudy SCT070 SCT100 76.5 48.7 38% 78 29.79 0.0
05 15:15 SW 15 G 21 10.00 Mostly Cloudy BKN070 BKN090 76.1 50 40% 78 29.8 0.0
05 14:55 SW 18 G 28 10.00 Mostly Cloudy BKN080 BKN090 75.6 48.2 38% 78 29.8 0.0
05 14:35 SW 18 G 31 10.00 Mostly Cloudy BKN070 76.8 48.4 37% 78 29.8 0.0
05 14:15 SW 21 G 29 10.00 Mostly Cloudy and Breezy BKN070 75.4 48 38% 78 29.8 0.0
05 13:55 SW 17 G 26 10.00 Partly Cloudy SCT060 75.7 48.6 76.3 65.5 38% 78 29.8 0.0
05 13:35 SW 17 G 30 10.00 Partly Cloudy SCT060 74.8 47.8 39% 29.8 0.0
05 12:55 SW 17 G 29 10.00 Partly Cloudy SCT060 74.3 48.2 40% 29.81 0.0
05 12:35 SW 21 G 29 10.00 Partly Cloudy and Breezy SCT060 74.5 48 39% 29.82 0.0
05 12:15 SW 17 G 30 10.00 Partly Cloudy SCT060 73.8 48 40% 29.82 0.0
05 11:55 SW 20 G 33 10.00 Fair CLR 73 48.2 41% 29.82 0.0
05 11:35 SW 20 G 28 10.00 Fair CLR 72.7 48.4 42% 29.82 0.0
05 11:15 SW 10 G 26 10.00 Partly Cloudy SCT060 72.5 48.7 43% 29.83 0.0
05 10:55 SW 16 G 28 10.00 Partly Cloudy SCT060 71.4 48.2 44% 29.84 0.0
05 10:35 SW 20 G 28 10.00 Partly Cloudy SCT060 70.7 48.2 45% 29.84 0.0
05 10:15 SW 17 G 26 10.00 Partly Cloudy SCT060 70.9 48.7 46% 29.85 0.0
05 09:55 SW 16 G 29 10.00 Fair CLR 69.3 48 47% 29.85 0.0
05 09:40 SW 22 10.00 Fair and Breezy CLR 69.6 48.4 47% 29.85 0.0
05 09:15 SW 17 G 24 10.00 Fair CLR 68 47.3 48% 29.84 0.0
05 08:50 SW 15 G 26 10.00 Partly Cloudy SCT065 SCT075 67.1 46.6 48% 29.84 0.0
05 08:35 SW 15 G 22 10.00 Mostly Cloudy BKN065 BKN085 66.2 46.6 49% 29.84 0.0
05 08:15 SW 16 G 26 10.00 Mostly Cloudy SCT065 BKN080 66.2 46.8 50% 29.85 0.0
05 07:55 SW 14 G 20 10.00 Fair CLR 65.3 46.6 65.5 59 51% 29.85 0.0
05 07:35 SW 14 G 22 10.00 Partly Cloudy SCT095 64.4 46.6 53% 29.85 0.0
05 07:15 SW 14 G 22 10.00 Overcast BKN070 OVC095 64 46.4 53% 29.85 0.0
05 06:55 SW 10 G 18 10.00 Overcast BKN070 OVC085 64 46.2 53% 29.84 0.0
05 06:35 SW 12 G 17 10.00 Overcast BKN070 OVC085 63.7 46.2 53% 29.83 0.0
05 06:15 SW 12 10.00 Overcast BKN070 OVC085 63.7 46.2 53% 29.82 0.0
05 05:55 SW 10 10.00 Mostly Cloudy BKN070 BKN090 BKN120 63 46.4 55% 29.82 0.0
05 05:35 SW 8 10.00 Mostly Cloudy SCT070 SCT085 BKN120 61.5 47.3 60% 29.81 0.0
05 05:15 SW 7 10.00 Mostly Cloudy SCT080 BKN085 60.6 47.7 63% 29.81 0.0
05 04:55 S 5 10.00 Partly Cloudy SCT080 SCT120 59.4 48 66% 29.81 0.0
05 04:35 SW 3 10.00 Partly Cloudy SCT070 SCT085 61.3 47.1 60% 29.81 0.0
05 04:15 W 8 10.00 Overcast BKN070 OVC100 62.8 46.8 56% 29.82 0.0
05 03:55 W 12 10.00 Overcast BKN070 OVC100 63.9 46.6 54% 29.81 0.0
05 03:35 SW 15 G 20 10.00 Overcast OVC110 64.6 45.7 51% 29.79 0.0
05 03:15 SW 10 G 17 10.00 Mostly Cloudy BKN110 64.4 46 52% 29.79 0.0
05 02:55 SW 10 10.00 Partly Cloudy SCT110 63.9 46.6 54% 29.79 0.0
05 02:35 SW 10 G 18 10.00 Partly Cloudy SCT110 63.7 47.3 55% 29.79 0.0
05 02:15 SW 7 10.00 Mostly Cloudy SCT080 BKN090 BKN120 61.9 48.7 62% 29.79 0.0
05 01:55 SW 10 10.00 Overcast SCT075 OVC100 63.5 48.2 68 63.3 58% 29.8 0.0
05 01:35 SW 12 10.00 Mostly Cloudy SCT075 BKN080 BKN120 65.7 46.4 50% 29.81 0.0
05 01:15 SW 10 10.00 Fair CLR 65.8 46.4 50% 29.8 0.0
05 00:55 SW 10 10.00 Fair CLR 66 46.8 50% 29.8 0.0
05 00:35 SW 8 10.00 Fair CLR 65.1 47.1 52% 29.8 0.0
05 00:15 SW 7 10.00 Fair CLR 64.8 47.3 53% 29.8 0.0
04 23:55 SW 5 10.00 Partly Cloudy SCT120 64.9 47.3 53% 29.8 0.0
04 23:35 S 6 10.00 Mostly Cloudy BKN120 65.1 47.3 53% 29.8 0.0
04 23:15 SW 6 10.00 Mostly Cloudy BKN110 64.2 47.3 54% 29.8 0.0
04 22:55 SW 6 10.00 Partly Cloudy SCT100 64 47.1 54% 29.81 0.0
04 22:35 SW 5 10.00 Fair CLR 63.9 46.9 54% 29.81 0.0
04 22:15 SW 7 10.00 Fair CLR 64.4 46.9 53% 29.81 0.0
04 21:55 SW 7 10.00 Partly Cloudy SCT120 65.3 47.3 52% 29.81 0.0
04 21:35 SW 10 10.00 Mostly Cloudy BKN110 66 47.1 51% 29.81 0.0
04 21:15 SW 10 G 17 10.00 Partly Cloudy SCT095 SCT120 66.6 47.1 50% 29.81 0.0
04 20:55 SW 7 10.00 Mostly Cloudy BKN095 BKN120 66.6 47.3 50% 29.79 0.0
04 20:35 SW 8 10.00 Overcast SCT095 OVC120 66.9 47.5 50% 29.79 0.0
04 20:15 SW 7 10.00 Mostly Cloudy BKN120 67.5 47.1 48% 29.79 0.0
04 19:55 SW 12 10.00 Mostly Cloudy BKN110 68 47.1 72.5 67.8 47% 29.79 0.0
04 19:35 SW 10 G 17 10.00 Partly Cloudy SCT120 68.2 46.9 47% 29.8 0.0
04 19:15 SW 10 G 22 10.00 Partly Cloudy SCT085 SCT110 68.9 46.8 45% 29.79 0.0
04 18:55 SW 13 10.00 Mostly Cloudy SCT070 BKN085 69.6 46.9 44% 29.79 0.0
04 18:35 SW 14 G 18 10.00 Mostly Cloudy BKN085 BKN110 69.6 46.8 44% 29.79 0.0
04 18:15 SW 12 G 17 10.00 Mostly Cloudy SCT095 BKN110 69.3 46.9 45% 29.79 0.0
04 17:55 SW 15 G 21 10.00 Mostly Cloudy SCT065 BKN095 BKN120 69.8 46.4 43% 29.79 0.0
04 17:35 SW 12 G 21 10.00 Mostly Cloudy BKN065 BKN075 BKN095 70.7 46.8 43% 29.79 0.0
04 17:15 SW 12 G 20 10.00 Mostly Cloudy BKN075 71.6 47.1 42% 29.79 0.0
04 16:55 SW 12 10.00 Mostly Cloudy BKN065 BKN080 70.9 46.8 42% 29.79 0.0
04 16:35 SW 14 G 28 10.00 Mostly Cloudy BKN065 BKN075 70.9 46.8 42% 29.79 0.0
04 16:15 SW 14 G 17 10.00 Mostly Cloudy BKN055 71.2 47.5 43% 29.79 0.0
04 15:55 S 16 G 22 10.00 Mostly Cloudy BKN055 BKN085 70.3 46.9 43% 29.8 0.0
04 15:35 SW 13 G 21 10.00 Mostly Cloudy BKN055 BKN085 70.9 47.3 43% 29.8 0.0
04 15:15 SW 14 10.00 Partly Cloudy SCT055 SCT090 71.2 47.7 43% 29.8 0.0
04 14:55 S 17 G 23 10.00 Mostly Cloudy SCT055 BKN090 70.9 47.5 43% 29.81 0.0
04 14:35 S 18 G 23 10.00 Mostly Cloudy BKN055 BKN080 70 46.6 43% 29.82 0.0
04 14:15 SW 14 G 21 10.00 Mostly Cloudy SCT055 BKN080 69.8 46.6 44% 29.82 0.0
04 13:55 SW 15 G 24 10.00 Mostly Cloudy SCT060 BKN070 BKN090 68.7 45.1 70.3 54.3 43% 29.83 0.0
04 13:35 SW 12 G 22 10.00 Partly Cloudy SCT070 SCT090 67.8 44.6 43% 29.83 0.0
04 13:15 SW 14 G 23 10.00 Fair CLR 68.4 44.4 42% 29.84 0.0
04 12:55 SW 10 G 18 10.00 Fair CLR 67.5 43.3 42% 29.85 0.0
04 12:35 S 14 G 21 10.00 Fair CLR 66.7 42.8 42% 29.86 0.0
04 12:15 SW 13 G 17 10.00 Fair CLR 66 42.6 43% 29.87 0.0
04 11:55 SW 10 10.00 Fair CLR 66 43.2 44% 29.87 0.0
04 11:35 W 13 G 20 10.00 Partly Cloudy SCT070 64.4 41.4 43% 29.88 0.0
04 11:15 SW 15 G 22 10.00 Mostly Cloudy SCT070 BKN080 64 41 43% 29.89 0.0
04 10:55 SW 15 G 22 10.00 Mostly Cloudy BKN080 63 40.1 43% 29.89 0.0
04 10:35 SW 16 G 21 10.00 Fair CLR 62.8 39.9 43% 29.89 0.0
04 10:15 SW 13 G 21 10.00 Fair CLR 61.9 39.6 44% 29.89 0.0
04 09:55 SW 12 G 20 10.00 Fair CLR 60.8 37.8 43% 29.89 0.0
04 09:35 SW 13 G 21 10.00 Partly Cloudy SCT070 SCT085 60.1 37.8 44% 29.89 0.0
04 09:15 SW 13 G 21 10.00 Partly Cloudy SCT070 59.5 37.6 44% 29.9 0.0
04 08:55 SW 13 G 22 10.00 Fair CLR 58.3 36.5 44% 29.9 0.0
04 08:35 SW 12 G 21 10.00 Fair CLR 57.2 35.6 44% 29.9 0.0
04 08:15 SW 12 G 18 10.00 Fair CLR 56.1 34.9 45% 29.89 0.0
04 07:55 SW 10 10.00 Mostly Cloudy BKN070 54 35.6 54.3 48.6 50% 29.89 0.0
04 07:35 SW 9 10.00 Overcast BKN070 OVC080 53.1 35.8 52% 29.9 0.0
04 07:15 SW 8 10.00 Mostly Cloudy BKN070 BKN090 51.8 35.8 55% 29.9 0.0
04 06:55 SW 8 10.00 Partly Cloudy SCT070 SCT090 50.4 34.9 55% 29.9 0.0
04 06:35 SW 10 10.00 Overcast OVC070 50.9 34 52% 29.9 0.0
04 06:15 SW 7 10.00 Mostly Cloudy BKN070 BKN110 50.5 33.1 51% 29.91 0.0
04 05:55 SW 8 10.00 Overcast OVC110 51.3 32.2 48% 29.9 0.0
04 05:15 SW 9 10.00 Overcast OVC090 51.4 31.1 46% 29.92 0.0
04 04:55 SW 10 10.00 Overcast SCT065 OVC090 51.6 30.2 44% 29.93 0.0
04 04:35 SW 8 10.00 Overcast SCT065 OVC100 51.1 30.6 45% 29.93 0.0
04 04:15 SW 8 10.00 Overcast OVC065 50.9 30.9 46% 29.93 0.0
04 03:55 SW 5 10.00 Overcast BKN065 OVC075 50.4 31.3 48% 29.93 0.0
04 03:35 SW 5 10.00 Overcast OVC075 50 31.5 49% 49 29.93 0.0
04 03:15 SW 6 10.00 Overcast OVC070 50 31.3 49% 48 29.94 0.0
Date Time (edt) Wind (mph) Vis. (mi.) Weather Sky Cond. Air Dwpt Max. Min. Relative Humidity Wind Chill (°F) Heat Index (°F) altimeter (in) sea level (mb) 1 hr 3 hr 6 hr
6 hour
Temperature (ºF) Pressure Precipitation (in)